Time;durP1;ratioP1;P1;durP2;ratioP2;P2;SDS_P1;SDS_P2;PMS_P1;PMS_P2;Temp;Humidity;BMP_temperature;BMP_pressure;BME280_temperature;BME280_humidity;BME280_pressure;Samples;Min_cycle;Max_cycle;Signal;HPM_P1;HPM_P2
2022/06/18 00:00:03;;;;;;;0.17;0.17;;;;;;;23.80;37.43;101530.94;695433;28;46326;-68
2022/06/18 00:00:32;;;;;;;0.10;0.10;;;;;;;23.79;37.68;101530.09;692286;28;135994;-68
2022/06/18 00:00:55;;;;;;;0.20;0.20;;;;;;;23.79;37.48;101532.84;696499;28;22272;-68
2022/06/18 00:01:17;;;;;;;0.20;0.20;;;;;;;23.79;37.47;101532.84;694983;28;44403;-69
2022/06/18 00:01:39;;;;;;;0.20;0.20;;;;;;;23.78;37.79;101528.44;695474;28;46317;-68
2022/06/18 00:02:01;;;;;;;0.10;0.10;;;;;;;23.78;37.62;101530.34;693862;28;67338;-67
2022/06/18 00:02:23;;;;;;;0.20;0.20;;;;;;;23.78;37.87;101535.84;695860;28;21285;-67
2022/06/18 00:02:44;;;;;;;0.10;0.10;;;;;;;23.77;37.67;101528.69;695166;28;45270;-69
2022/06/18 00:03:05;;;;;;;0.10;0.10;;;;;;;23.76;37.71;101533.34;696626;28;21579;-68
2022/06/18 00:03:27;;;;;;;0.10;0.10;;;;;;;23.74;37.62;101533.59;695788;28;22513;-69
2022/06/18 00:03:48;;;;;;;0.17;0.17;;;;;;;23.74;37.65;101528.06;695475;28;44410;-68
2022/06/18 00:04:13;;;;;;;0.10;0.10;;;;;;;23.73;37.65;101528.31;696690;28;21553;-68
2022/06/18 00:04:34;;;;;;;0.10;0.10;;;;;;;23.72;37.83;101527.47;692652;28;115203;-67
2022/06/18 00:04:55;;;;;;;0.10;0.10;;;;;;;23.73;37.57;101528.31;695374;28;22399;-67
2022/06/18 00:05:19;;;;;;;0.13;0.13;;;;;;;23.72;37.96;101534.94;695455;28;23427;-69
2022/06/18 00:05:42;;;;;;;0.20;0.20;;;;;;;23.70;37.90;101531.59;693512;28;92994;-67
2022/06/18 00:06:03;;;;;;;0.10;0.10;;;;;;;23.68;38.01;101531.84;694221;28;90401;-68
2022/06/18 00:06:24;;;;;;;0.13;0.13;;;;;;;23.67;37.96;101532.09;696104;28;22399;-67
2022/06/18 00:06:50;;;;;;;0.10;0.10;;;;;;;23.67;38.19;101530.16;695833;28;21430;-68
2022/06/18 00:07:15;;;;;;;0.20;0.20;;;;;;;23.63;37.90;101526.19;692553;28;115174;-68
2022/06/18 00:07:38;;;;;;;0.10;0.10;;;;;;;23.64;38.38;101522.38;692932;28;115408;-68
2022/06/18 00:08:09;;;;;;;0.10;0.10;;;;;;;23.60;38.03;101517.59;694669;28;90782;-69
2022/06/18 00:08:30;;;;;;;0.20;0.20;;;;;;;23.64;38.21;101524.31;693507;28;135785;-69
2022/06/18 00:08:52;;;;;;;0.10;0.10;;;;;;;23.63;38.49;101526.19;697814;28;23986;-68
2022/06/18 00:09:14;;;;;;;0.17;0.17;;;;;;;23.62;38.42;101529.19;697667;28;22415;-69
2022/06/18 00:09:41;;;;;;;0.10;0.10;;;;;;;23.61;38.43;101525.63;696750;28;45274;-68
2022/06/18 00:10:06;;;;;;;0.10;0.10;;;;;;;23.58;38.39;101515.06;691691;28;180559;-69
2022/06/18 00:10:29;;;;;;;0.10;0.10;;;;;;;23.59;38.69;101525.03;694342;28;139105;-69
2022/06/18 00:10:55;;;;;;;67.25;64.20;;;;;;;23.55;38.67;101521.91;697528;28;45269;-68
2022/06/18 00:13:41;;;;;;;106.85;102.03;;;;;;;23.49;38.99;101522.06;695159;28;96751;-68
2022/06/18 00:14:02;;;;;;;81.75;77.97;;;;;;;23.47;38.56;101513.22;693312;28;137927;-68
2022/06/18 00:14:25;;;;;;;99.90;95.30;;;;;;;23.44;38.65;101514.53;698069;28;1332;-68
2022/06/18 00:14:46;;;;;;;109.40;104.40;;;;;;;23.45;38.61;101516.22;693939;28;67001;-70
2022/06/18 00:15:12;;;;;;;102.55;97.88;;;;;;;23.40;38.71;101513.31;695817;28;21546;-68
2022/06/18 00:15:35;;;;;;;101.83;97.20;;;;;;;23.43;38.76;101514.75;692384;28;136451;-67
2022/06/18 00:15:58;;;;;;;88.78;84.78;;;;;;;23.34;38.80;101503.31;693666;28;90576;-69
2022/06/18 00:16:21;;;;;;;29.10;27.77;;;;;;;23.38;38.71;101508.06;694969;28;45249;-69
2022/06/18 00:16:42;;;;;;;0.20;0.20;;;;;;;23.39;38.36;101511.66;694580;28;69365;-68
2022/06/18 00:17:08;;;;;;;0.20;0.20;;;;;;;23.39;38.55;101514.41;695433;28;21549;-68
2022/06/18 00:17:30;;;;;;;39.85;38.08;;;;;;;23.39;38.61;101512.50;691833;28;138027;-68
2022/06/18 00:17:53;;;;;;;100.90;96.30;;;;;;;23.39;38.60;101511.66;694649;28;65730;-68
2022/06/18 00:18:14;;;;;;;91.20;87.10;;;;;;;23.41;38.77;101508.66;694541;28;68949;-68
2022/06/18 00:18:35;;;;;;;85.93;82.00;;;;;;;23.42;38.40;101510.31;695600;28;22402;-69
2022/06/18 00:18:57;;;;;;;87.72;83.70;;;;;;;23.42;38.29;101513.94;695567;28;44369;-70
2022/06/18 00:19:19;;;;;;;111.38;106.18;;;;;;;23.43;38.24;101512.84;696007;28;22399;-68
2022/06/18 00:19:40;;;;;;;102.68;97.88;;;;;;;23.42;38.19;101493.78;693953;28;45258;-68
2022/06/18 00:20:02;;;;;;;53.65;51.15;;;;;;;23.45;38.66;101509.84;696088;28;21387;-68
2022/06/18 00:20:26;;;;;;;82.35;78.53;;;;;;;23.44;38.82;101509.00;694915;28;47022;-68
2022/06/18 00:20:48;;;;;;;113.82;108.55;;;;;;;23.44;38.42;101509.00;693710;28;92397;-68
2022/06/18 00:21:15;;;;;;;123.95;118.18;;;;;;;23.45;39.01;101515.34;695061;28;69329;-68
2022/06/18 00:21:37;;;;;;;133.27;126.82;;;;;;;23.43;39.00;101506.50;692491;28;138065;-69
2022/06/18 00:21:58;;;;;;;134.90;128.40;;;;;;;23.41;39.06;101509.50;695903;28;21532;-69
2022/06/18 00:22:22;;;;;;;148.00;140.80;;;;;;;23.41;39.24;101503.16;694745;28;46187;-68
2022/06/18 00:22:46;;;;;;;95.18;90.47;;;;;;;23.37;39.43;101508.31;693460;28;93149;-68
2022/06/18 00:23:14;;;;;;;0.20;0.20;;;;;;;23.39;39.37;101506.16;693339;28;92297;-68
2022/06/18 00:23:37;;;;;;;122.57;116.55;;;;;;;23.37;39.57;101508.31;691611;28;136320;-69
2022/06/18 00:23:58;;;;;;;155.90;148.25;;;;;;;23.36;39.46;101501.97;695831;28;46340;-68
2022/06/18 00:24:21;;;;;;;158.97;151.17;;;;;;;23.33;39.53;101505.19;695503;28;46372;-68
2022/06/18 00:24:45;;;;;;;172.10;163.63;;;;;;;23.31;39.60;101503.78;693957;28;69470;-68
2022/06/18 00:25:16;;;;;;;172.23;163.68;;;;;;;23.32;39.69;101506.31;693684;28;92170;-68
2022/06/18 00:25:40;;;;;;;136.57;129.77;;;;;;;23.28;39.69;101499.59;691929;28;135779;-68
2022/06/18 00:26:01;;;;;;;48.78;46.40;;;;;;;23.30;39.67;101507.63;693944;28;92975;-69
2022/06/18 00:26:23;;;;;;;167.77;159.48;;;;;;;23.29;39.71;101505.94;696235;28;21531;-68
2022/06/18 00:26:45;;;;;;;171.88;163.27;;;;;;;23.21;39.83;101493.38;693885;28;69424;-70
2022/06/18 00:27:08;;;;;;;168.43;159.93;;;;;;;23.23;40.04;101496.75;694645;28;46420;-68
2022/06/18 00:27:31;;;;;;;187.10;177.70;;;;;;;23.21;39.87;101496.97;693133;28;92301;-68
2022/06/18 00:27:52;;;;;;;216.30;205.63;;;;;;;23.24;39.79;101503.06;694827;28;46334;-68
2022/06/18 00:28:22;;;;;;;202.07;191.93;;;;;;;23.22;40.08;101503.31;694036;28;21552;-68
2022/06/18 00:28:44;;;;;;;232.13;220.32;;;;;;;23.23;39.91;101504.16;687708;28;56969;-68
2022/06/18 00:29:09;;;;;;;212.77;201.98;;;;;;;23.23;40.39;101499.50;686894;28;22363;-68
2022/06/18 00:29:31;;;;;;;206.85;196.38;;;;;;;23.20;39.94;101494.47;683917;28;113408;-67
2022/06/18 00:29:53;;;;;;;194.63;184.73;;;;;;;23.23;39.96;101498.63;687871;28;45184;-68
2022/06/18 00:30:18;;;;;;;198.18;188.15;;;;;;;23.22;40.16;101497.81;689257;28;46347;-68
2022/06/18 00:30:39;;;;;;;9.48;9.02;;;;;;;23.20;40.06;101495.28;685781;28;114969;-69
2022/06/18 00:31:00;;;;;;;0.20;0.20;;;;;;;23.23;40.01;101496.75;692722;28;22424;-67
2022/06/18 00:31:23;;;;;;;0.20;0.20;;;;;;;23.24;40.14;101497.56;693785;28;22444;-67
2022/06/18 00:31:44;;;;;;;0.20;0.20;;;;;;;23.22;40.33;101495.06;693787;28;43823;-67
2022/06/18 00:32:07;;;;;;;0.20;0.20;;;;;;;23.24;40.09;101494.81;695830;28;44269;-67
2022/06/18 00:32:28;;;;;;;0.20;0.20;;;;;;;23.24;40.28;101500.31;695203;28;69501;-68
2022/06/18 00:32:50;;;;;;;0.20;0.20;;;;;;;23.24;40.13;101495.63;697937;28;22397;-68
2022/06/18 00:33:12;;;;;;;160.82;153.23;;;;;;;23.24;40.19;101489.28;696085;28;43238;-68
2022/06/18 00:33:35;;;;;;;343.23;326.92;;;;;;;23.23;40.41;101499.50;695847;28;46359;-67
2022/06/18 00:33:57;;;;;;;359.00;341.85;;;;;;;23.19;40.32;101490.84;695123;28;69420;-67
2022/06/18 00:34:19;;;;;;;382.83;364.90;;;;;;;23.21;40.28;101496.97;696615;28;22202;-67
2022/06/18 00:34:40;;;;;;;381.92;364.10;;;;;;;23.19;40.13;101490.84;691800;28;69507;-67
2022/06/18 00:35:02;;;;;;;372.75;355.20;;;;;;;23.16;40.33;101494.09;694174;28;21558;-67
2022/06/18 00:35:23;;;;;;;375.98;358.23;;;;;;;23.18;40.40;101491.09;694055;28;21234;-67
2022/06/18 00:35:45;;;;;;;377.55;359.80;;;;;;;23.17;40.33;101493.03;694827;28;22481;-67
2022/06/18 00:36:13;;;;;;;363.25;346.13;;;;;;;23.16;40.52;101491.34;695823;28;46321;-68
2022/06/18 00:36:36;;;;;;;366.13;348.65;;;;;;;23.16;40.30;101488.59;692528;28;138603;-69
2022/06/18 00:36:58;;;;;;;346.95;330.35;;;;;;;23.16;40.22;101490.50;692410;28;67637;-67
2022/06/18 00:37:20;;;;;;;375.45;357.38;;;;;;;23.15;40.17;101497.94;692234;28;69100;-68
2022/06/18 00:37:42;;;;;;;191.98;182.73;;;;;;;23.15;40.45;101489.69;694025;28;22131;-68
2022/06/18 00:38:05;;;;;;;0.30;0.30;;;;;;;23.15;40.42;101491.59;693768;28;44370;-68
2022/06/18 00:38:29;;;;;;;206.48;196.45;;;;;;;23.13;40.30;101480.81;690116;28;67125;-68
2022/06/18 00:38:50;;;;;;;376.75;358.45;;;;;;;23.15;40.27;101488.81;689050;28;92128;-67
2022/06/18 00:39:14;;;;;;;352.35;335.13;;;;;;;23.14;40.07;101492.69;693591;28;22251;-68
2022/06/18 00:39:36;;;;;;;354.80;337.35;;;;;;;23.14;40.27;101489.94;688805;28;90425;-68
2022/06/18 00:39:58;;;;;;;392.73;373.27;;;;;;;23.15;40.11;101483.31;686185;28;89074;-69
2022/06/18 00:40:23;;;;;;;420.60;399.58;;;;;;;23.15;40.06;101491.59;689699;28;45124;-69
2022/06/18 00:40:45;;;;;;;469.30;445.70;;;;;;;23.14;40.01;101487.19;686681;28;116135;-69
2022/06/18 00:41:08;;;;;;;451.83;429.33;;;;;;;23.14;40.02;101495.44;688031;28;45238;-69
2022/06/18 00:41:30;;;;;;;463.00;439.90;;;;;;;23.14;40.15;101489.94;689306;28;46290;-69
2022/06/18 00:41:51;;;;;;;506.88;481.30;;;;;;;23.13;40.04;101486.31;689207;28;45340;-70
2022/06/18 00:42:23;;;;;;;573.20;543.83;;;;;;;23.11;40.08;101484.91;687677;28;46410;-69
2022/06/18 00:42:45;;;;;;;667.10;631.78;;;;;;;23.09;40.13;101481.53;685798;28;160438;-69
2022/06/18 00:43:13;;;;;;;696.28;659.03;;;;;;;23.13;39.82;101491.81;689186;28;69454;-68
2022/06/18 00:43:36;;;;;;;690.10;653.38;;;;;;;23.12;39.73;101487.41;686353;28;162569;-70
2022/06/18 00:44:00;;;;;;;707.95;669.78;;;;;;;23.11;39.52;101493.16;689142;28;92036;-69
2022/06/18 00:44:27;;;;;;;743.47;702.55;;;;;;;23.11;39.34;101490.41;691825;28;67500;-69
2022/06/18 00:44:53;;;;;;;740.45;699.65;;;;;;;23.10;39.41;101480.47;691054;28;160700;-70
2022/06/18 00:45:17;;;;;;;746.50;705.33;;;;;;;23.09;39.13;101489.78;693742;28;137821;-68
2022/06/18 00:45:39;;;;;;;643.55;609.75;;;;;;;23.08;39.33;101493.63;694531;28;92394;-68
2022/06/18 00:46:04;;;;;;;387.38;367.63;;;;;;;23.08;39.29;101488.09;696790;28;21540;-68
2022/06/18 00:46:29;;;;;;;0.28;0.28;;;;;;;23.05;39.49;101486.66;691174;28;114968;-68
2022/06/18 00:47:01;;;;;;;0.20;0.20;;;;;;;22.98;39.54;101474.97;690032;28;138360;-68
2022/06/18 00:47:30;;;;;;;0.40;0.40;;;;;;;23.03;39.49;101486.09;687205;28;137837;-68
2022/06/18 00:48:06;;;;;;;0.30;0.30;;;;;;;23.00;39.08;101484.63;689564;28;136089;-68
2022/06/18 00:48:34;;;;;;;0.20;0.20;;;;;;;22.98;39.63;101486.81;691409;28;160630;-68
2022/06/18 00:49:01;;;;;;;0.30;0.30;;;;;;;22.98;39.64;101488.72;692635;28;137762;-68
2022/06/18 00:49:26;;;;;;;0.30;0.30;;;;;;;22.96;39.49;101486.22;692439;28;137836;-68
2022/06/18 00:49:51;;;;;;;0.25;0.25;;;;;;;22.97;39.62;101487.06;693556;28;92319;-69
2022/06/18 00:50:15;;;;;;;0.20;0.20;;;;;;;22.95;39.60;101480.94;690105;28;136486;-68
2022/06/18 00:50:43;;;;;;;0.20;0.20;;;;;;;22.95;39.69;101479.03;688496;28;114573;-68
2022/06/18 00:51:09;;;;;;;0.38;0.38;;;;;;;22.94;39.77;101479.28;687663;28;139084;-67
2022/06/18 00:51:35;;;;;;;169.77;161.57;;;;;;;22.92;39.74;101474.00;686980;28;136797;-68
2022/06/18 00:52:01;;;;;;;256.55;244.30;;;;;;;22.94;39.62;101473.75;687767;28;115086;-69
2022/06/18 00:52:27;;;;;;;199.35;189.75;;;;;;;22.94;39.46;101476.50;689255;28;159284;-68
2022/06/18 00:52:55;;;;;;;75.43;71.18;;;;;;;22.94;39.58;101482.03;692136;28;138115;-68
2022/06/18 00:53:20;;;;;;;0.30;0.30;;;;;;;22.93;39.42;101481.19;689897;28;136315;-68
2022/06/18 00:53:45;;;;;;;0.47;0.47;;;;;;;22.90;39.62;101472.56;691501;28;115034;-68
2022/06/18 00:54:10;;;;;;;0.30;0.30;;;;;;;22.94;39.58;101482.84;693968;28;113259;-69
2022/06/18 00:54:38;;;;;;;0.32;0.32;;;;;;;22.93;39.42;101480.34;691081;28;115363;-68
2022/06/18 00:55:02;;;;;;;0.20;0.20;;;;;;;22.91;39.53;101474.25;689012;28;157793;-68
2022/06/18 00:55:29;;;;;;;0.17;0.17;;;;;;;22.92;39.69;101479.50;693409;28;114968;-68
2022/06/18 00:55:53;;;;;;;0.30;0.30;;;;;;;22.90;39.78;101476.16;689516;28;136490;-68
2022/06/18 00:56:20;;;;;;;0.20;0.20;;;;;;;22.91;39.73;101477.81;691642;28;92507;-67
2022/06/18 00:56:45;;;;;;;1.30;1.30;;;;;;;22.90;39.83;101476.16;686074;28;159479;-67
2022/06/18 00:57:10;;;;;;;0.20;0.20;;;;;;;22.91;39.94;101477.00;685378;28;115709;-68
2022/06/18 00:57:36;;;;;;;0.20;0.20;;;;;;;22.91;39.59;101479.75;686204;28;96336;-67
2022/06/18 00:58:01;;;;;;;0.20;0.20;;;;;;;22.92;39.50;101478.69;687552;28;137723;-67
2022/06/18 00:58:27;;;;;;;0.20;0.20;;;;;;;22.92;39.72;101475.94;687837;28;115095;-68
2022/06/18 00:58:51;;;;;;;108.00;102.95;;;;;;;22.90;39.86;101473.41;686961;28;136481;-69
2022/06/18 00:59:17;;;;;;;215.38;205.25;;;;;;;22.90;39.75;101472.56;691661;28;92288;-69
2022/06/18 00:59:44;;;;;;;211.55;201.15;;;;;;;22.88;39.65;101466.47;688941;28;137788;-69
2022/06/18 01:00:11;;;;;;;227.38;215.93;;;;;;;22.86;39.55;101474.97;686906;28;159286;-69
2022/06/18 01:00:35;;;;;;;243.63;231.45;;;;;;;22.82;39.75;101465.50;687136;28;137682;-69
2022/06/18 01:00:57;;;;;;;263.35;250.25;;;;;;;22.86;39.50;101477.72;691558;28;90339;-69
2022/06/18 01:01:22;;;;;;;272.95;259.27;;;;;;;22.85;39.59;101474.13;689712;28;44399;-69
2022/06/18 01:01:46;;;;;;;303.10;287.92;;;;;;;22.85;39.72;101473.28;687698;28;115290;-69
2022/06/18 01:02:11;;;;;;;326.88;310.50;;;;;;;22.84;40.00;101466.13;692232;28;67488;-69
2022/06/18 01:02:35;;;;;;;194.85;185.05;;;;;;;22.82;39.73;101468.25;690987;28;115891;-69
2022/06/18 01:02:57;;;;;;;275.17;261.35;;;;;;;22.83;39.92;101473.53;693365;28;92309;-69
2022/06/18 01:03:23;;;;;;;51.83;49.28;;;;;;;22.78;39.78;101459.66;694397;28;45240;-69
2022/06/18 01:03:46;;;;;;;0.20;0.20;;;;;;;22.82;39.93;101468.25;686683;28;138200;-69
2022/06/18 01:04:24;;;;;;;0.13;0.13;;;;;;;22.83;39.93;101470.75;689223;28;68359;-70
2022/06/18 01:04:46;;;;;;;0.20;0.20;;;;;;;22.83;39.74;101470.75;687705;28;138026;-69
2022/06/18 01:05:17;;;;;;;0.20;0.20;;;;;;;22.82;39.69;101468.25;691590;28;46368;-69
2022/06/18 01:05:39;;;;;;;0.20;0.20;;;;;;;22.81;39.79;101467.44;691182;28;137831;-69
2022/06/18 01:06:05;;;;;;;0.20;0.20;;;;;;;22.81;39.69;101469.34;693944;28;44316;-69
2022/06/18 01:06:29;;;;;;;0.10;0.10;;;;;;;22.80;39.66;101464.91;690136;28;138669;-69
2022/06/18 01:06:54;;;;;;;0.20;0.20;;;;;;;22.71;39.49;101456.19;693623;28;92308;-69
2022/06/18 01:07:20;;;;;;;0.20;0.20;;;;;;;22.78;39.44;101464.31;693843;28;92194;-69
2022/06/18 01:07:42;;;;;;;0.30;0.30;;;;;;;22.78;39.55;101465.16;689846;28;137955;-69
2022/06/18 01:08:10;;;;;;;0.20;0.20;;;;;;;22.77;39.53;101463.47;688564;28;69454;-70
2022/06/18 01:08:33;;;;;;;0.35;0.35;;;;;;;22.78;39.45;101464.31;687073;28;137894;-69
2022/06/18 01:09:00;;;;;;;0.20;0.20;;;;;;;22.81;39.48;101464.66;691279;28;45276;-68
2022/06/18 01:09:21;;;;;;;0.20;0.20;;;;;;;22.83;39.48;101464.44;687766;28;129654;-69
2022/06/18 01:09:43;;;;;;;0.10;0.10;;;;;;;22.81;39.44;101456.41;693417;28;21525;-68
2022/06/18 01:10:15;;;;;;;0.17;0.17;;;;;;;22.83;39.28;101459.75;694280;28;70679;-68
2022/06/18 01:10:41;;;;;;;0.30;0.30;;;;;;;22.83;39.45;101464.44;692378;28;137804;-69
2022/06/18 01:11:05;;;;;;;0.20;0.20;;;;;;;22.82;39.53;101460.00;693124;28;137784;-69
2022/06/18 01:11:30;;;;;;;0.30;0.30;;;;;;;22.76;39.49;101453.56;691372;28;113784;-69
2022/06/18 01:11:54;;;;;;;0.20;0.20;;;;;;;22.80;39.62;101454.72;686771;28;160457;-69
2022/06/18 01:12:17;;;;;;;0.22;0.22;;;;;;;22.78;39.63;101448.63;690023;28;46653;-69
2022/06/18 01:12:39;;;;;;;0.30;0.30;;;;;;;22.78;39.76;101462.41;687791;28;46437;-69
2022/06/18 01:13:02;;;;;;;0.28;0.28;;;;;;;22.76;39.72;101456.31;685656;28;46412;-69
2022/06/18 01:13:29;;;;;;;0.38;0.38;;;;;;;22.75;39.72;101460.13;684938;28;55558;-69
2022/06/18 01:13:50;;;;;;;0.50;0.50;;;;;;;22.71;40.08;101458.94;682139;28;138953;-69
2022/06/18 01:14:15;;;;;;;0.60;0.60;;;;;;;22.67;40.07;101453.06;689295;28;22423;-69
2022/06/18 01:14:37;;;;;;;0.50;0.50;;;;;;;22.66;40.15;101454.16;686595;28;137865;-69
2022/06/18 01:15:02;;;;;;;354.55;337.20;;;;;;;22.64;39.96;101456.31;690028;28;45378;-69
2022/06/18 01:15:26;;;;;;;534.90;507.75;;;;;;;22.63;40.13;101462.06;687239;28;137767;-66
2022/06/18 01:15:49;;;;;;;674.72;638.42;;;;;;;22.60;40.09;101454.28;689469;28;67539;-66
2022/06/18 01:16:12;;;;;;;610.65;577.05;;;;;;;22.55;40.16;101448.66;687271;28;69418;-67
2022/06/18 01:16:38;;;;;;;404.92;382.08;;;;;;;22.59;40.08;101464.44;682374;28;115163;-66
2022/06/18 01:17:03;;;;;;;809.83;763.38;;;;;;;22.57;40.18;101455.59;681930;28;115031;-68
2022/06/18 01:17:25;;;;;;;838.55;790.47;;;;;;;22.57;39.90;101457.50;684082;28;67607;-69
2022/06/18 01:17:47;;;;;;;899.13;847.20;;;;;;;22.55;40.10;101460.50;685037;28;22404;-70
2022/06/18 01:18:10;;;;;;;763.90;719.50;;;;;;;22.54;39.96;101461.59;684476;28;67444;-69
2022/06/18 01:18:32;;;;;;;46.08;43.47;;;;;;;22.53;39.95;101461.81;687724;28;69407;-69
2022/06/18 01:18:53;;;;;;;4.40;4.30;;;;;;;22.53;40.11;101456.31;686995;28;23956;-69
2022/06/18 01:19:20;;;;;;;0.50;0.50;;;;;;;22.50;40.24;101460.38;686755;28;69472;-66
2022/06/18 01:19:45;;;;;;;0.50;0.50;;;;;;;22.51;40.06;101462.06;685733;28;137865;-66
2022/06/18 01:20:10;;;;;;;0.40;0.40;;;;;;;22.50;40.11;101452.13;685251;28;113745;-69
2022/06/18 01:20:32;;;;;;;0.55;0.55;;;;;;;22.46;39.95;101448.16;683295;28;92347;-69
2022/06/18 01:20:57;;;;;;;0.40;0.40;;;;;;;22.47;40.22;101453.44;686134;28;69442;-69
2022/06/18 01:21:25;;;;;;;0.40;0.40;;;;;;;22.47;40.58;101452.59;685888;28;92130;-69
2022/06/18 01:21:55;;;;;;;0.20;0.20;;;;;;;22.45;40.57;101454.75;684306;28;135878;-68
2022/06/18 01:22:27;;;;;;;0.25;0.25;;;;;;;22.40;40.78;101446.38;686995;28;137823;-69
2022/06/18 01:22:59;;;;;;;0.28;0.28;;;;;;;22.41;41.01;101456.31;688589;28;137717;-69
2022/06/18 01:23:28;;;;;;;0.20;0.20;;;;;;;22.40;41.00;101451.88;688154;28;137675;-69
2022/06/18 01:23:53;;;;;;;0.30;0.30;;;;;;;22.37;40.96;101452.38;690385;28;136128;-69
2022/06/18 01:24:16;;;;;;;0.40;0.40;;;;;;;22.37;40.93;101449.63;689114;28;116703;-69
2022/06/18 01:24:41;;;;;;;0.30;0.30;;;;;;;22.33;40.96;101449.25;686295;28;90781;-66
2022/06/18 01:25:06;;;;;;;0.30;0.30;;;;;;;22.34;40.92;101455.59;684379;28;138075;-66
2022/06/18 01:25:30;;;;;;;0.28;0.28;;;;;;;22.32;40.89;101447.59;686761;28;136501;-69
2022/06/18 01:25:53;;;;;;;0.30;0.30;;;;;;;22.31;40.93;101446.72;686097;28;67514;-66
2022/06/18 01:26:15;;;;;;;0.70;0.70;;;;;;;22.31;40.82;101445.91;688457;28;1105;-69
2022/06/18 01:26:38;;;;;;;0.40;0.40;;;;;;;22.25;40.89;101444.91;682725;28;90411;-69
2022/06/18 01:27:00;;;;;;;0.50;0.50;;;;;;;22.28;40.65;101447.16;686347;28;45301;-69
2022/06/18 01:27:22;;;;;;;0.65;0.65;;;;;;;22.30;40.68;101446.97;687406;28;44246;-69
2022/06/18 01:27:46;;;;;;;0.40;0.40;;;;;;;22.29;40.64;101443.34;688666;28;69484;-69
2022/06/18 01:28:27;;;;;;;624.05;591.58;;;;;;;22.31;40.40;101449.47;689978;28;136008;-69
2022/06/18 01:28:48;;;;;;;509.00;483.58;;;;;;;22.30;40.34;101446.97;690482;28;21500;-69
2022/06/18 01:29:11;;;;;;;485.25;460.75;;;;;;;22.29;40.50;101445.28;689659;28;69400;-69
2022/06/18 01:29:33;;;;;;;489.77;465.05;;;;;;;22.27;40.54;101447.41;690022;28;45335;-69
2022/06/18 01:29:55;;;;;;;532.05;504.52;;;;;;;22.24;40.76;101445.13;686232;28;44432;-69
2022/06/18 01:30:21;;;;;;;701.92;663.30;;;;;;;22.24;40.81;101442.38;683696;28;69526;-69
2022/06/18 01:30:45;;;;;;;570.20;539.63;;;;;;;22.22;40.69;101442.63;681547;28;115085;-69
2022/06/18 01:31:10;;;;;;;324.73;308.27;;;;;;;22.18;40.57;101435.94;681572;28;135297;-69
2022/06/18 01:31:31;;;;;;;279.40;265.20;;;;;;;22.22;40.63;101441.78;686008;28;25427;-69
2022/06/18 01:31:53;;;;;;;92.30;87.65;;;;;;;22.21;40.53;101443.72;688653;28;22469;-69
2022/06/18 01:32:17;;;;;;;0.20;0.20;;;;;;;22.14;40.59;101430.06;689633;28;68590;-69
2022/06/18 01:32:39;;;;;;;0.20;0.20;;;;;;;22.20;40.48;101439.28;687122;28;92327;-69
2022/06/18 01:33:01;;;;;;;0.20;0.20;;;;;;;22.18;40.51;101435.06;689960;28;23524;-69
2022/06/18 01:33:24;;;;;;;0.20;0.20;;;;;;;22.19;40.63;101440.34;688897;28;52010;-69
2022/06/18 01:33:46;;;;;;;0.22;0.22;;;;;;;22.16;40.46;101438.06;689566;28;45272;-69
2022/06/18 01:34:10;;;;;;;0.20;0.20;;;;;;;22.19;40.52;101445.03;687040;28;69471;-69
2022/06/18 01:34:35;;;;;;;0.20;0.20;;;;;;;22.17;40.41;101439.75;685901;28;138278;-68
2022/06/18 01:34:57;;;;;;;0.20;0.20;;;;;;;22.17;40.51;101445.25;688962;28;66605;-68
2022/06/18 01:35:18;;;;;;;0.20;0.20;;;;;;;22.18;40.42;101443.34;691365;28;21526;-69
2022/06/18 01:35:55;;;;;;;0.20;0.20;;;;;;;22.16;40.42;101440.00;684368;28;137550;-69
2022/06/18 01:36:26;;;;;;;0.17;0.17;;;;;;;22.17;40.32;101442.50;683928;28;136358;-68
2022/06/18 01:36:50;;;;;;;0.20;0.20;;;;;;;22.17;40.32;101444.44;682772;28;136361;-68
2022/06/18 01:37:12;;;;;;;0.20;0.20;;;;;;;22.18;40.14;101443.34;687907;28;67533;-69
2022/06/18 01:37:35;;;;;;;0.30;0.30;;;;;;;22.17;40.17;101442.50;687408;28;44465;-69
2022/06/18 01:38:05;;;;;;;0.20;0.20;;;;;;;22.17;39.71;101445.25;684371;28;136197;-68
2022/06/18 01:38:26;;;;;;;0.20;0.20;;;;;;;22.17;39.91;101444.44;691925;28;12593;-69
2022/06/18 01:38:49;;;;;;;0.20;0.20;;;;;;;22.16;39.99;101438.06;686134;28;69586;-68
2022/06/18 01:39:13;;;;;;;0.20;0.20;;;;;;;22.17;39.86;101437.00;688828;28;46264;-69
2022/06/18 01:39:39;;;;;;;0.20;0.20;;;;;;;22.18;40.11;101446.09;686913;28;90778;-69
2022/06/18 01:40:03;;;;;;;0.20;0.20;;;;;;;22.19;39.81;101442.25;685064;28;156914;-70
2022/06/18 01:40:31;;;;;;;0.20;0.20;;;;;;;22.17;40.00;101437.00;691777;28;69460;-68
2022/06/18 01:40:55;;;;;;;0.30;0.30;;;;;;;22.18;39.85;101437.84;689599;28;137793;-69
2022/06/18 01:42:03;;;;;;;0.20;0.20;;;;;;;22.18;40.09;101437.84;691903;28;107171;-69
2022/06/18 01:42:31;;;;;;;0.30;0.30;;;;;;;22.19;40.03;101436.75;689919;28;138928;-68
2022/06/18 01:42:55;;;;;;;0.20;0.20;;;;;;;22.17;40.17;101427.91;690709;28;115264;-69
2022/06/18 01:43:19;;;;;;;0.30;0.30;;;;;;;22.18;39.92;101440.59;691341;28;92324;-69
2022/06/18 01:43:41;;;;;;;0.20;0.20;;;;;;;22.17;39.89;101428.75;687769;28;115174;-69
2022/06/18 01:44:06;;;;;;;0.25;0.25;;;;;;;22.18;39.99;101433.19;687252;28;45307;-70
2022/06/18 01:44:33;;;;;;;0.20;0.20;;;;;;;22.18;40.07;101433.19;687139;28;92330;-69
2022/06/18 01:44:57;;;;;;;0.30;0.30;;;;;;;22.18;39.83;101435.06;682187;28;133940;-68
2022/06/18 01:45:30;;;;;;;0.20;0.20;;;;;;;22.13;39.67;101417.41;683121;28;137701;-69
2022/06/18 01:45:55;;;;;;;0.40;0.40;;;;;;;22.18;39.94;101432.31;686425;28;114267;-69
2022/06/18 01:46:18;;;;;;;124.85;118.70;;;;;;;22.17;39.79;101427.91;682672;28;138032;-69
2022/06/18 01:46:43;;;;;;;493.77;469.48;;;;;;;22.14;40.08;101424.56;687918;28;63840;-69
2022/06/18 01:47:10;;;;;;;496.33;471.63;;;;;;;22.16;39.73;101423.47;684986;28;137976;-70
2022/06/18 01:47:38;;;;;;;504.48;479.38;;;;;;;22.15;40.16;101428.16;685127;28;138325;-68
2022/06/18 01:48:04;;;;;;;504.27;479.17;;;;;;;22.15;39.99;101425.41;685876;28;138126;-69
2022/06/18 01:48:31;;;;;;;466.08;442.80;;;;;;;22.12;40.13;101425.88;687609;28;79496;-68
2022/06/18 01:48:57;;;;;;;558.88;530.63;;;;;;;22.12;40.12;101414.88;683221;28;135967;-69
2022/06/18 01:49:22;;;;;;;567.85;539.35;;;;;;;22.11;40.27;101419.53;682843;28;93025;-69
2022/06/18 01:49:49;;;;;;;592.45;562.28;;;;;;;22.10;40.21;101425.25;683579;28;90709;-70
2022/06/18 01:50:15;;;;;;;586.33;555.95;;;;;;;22.11;40.03;101422.28;684901;28;146740;-69
2022/06/18 01:50:43;;;;;;;149.25;141.43;;;;;;;22.11;40.11;101422.28;685753;28;117782;-69
2022/06/18 01:51:10;;;;;;;0.40;0.40;;;;;;;22.10;40.00;101420.63;688367;28;138270;-69
2022/06/18 01:51:34;;;;;;;0.25;0.25;;;;;;;22.10;39.99;101419.75;687291;28;161131;-68
2022/06/18 01:51:57;;;;;;;0.28;0.28;;;;;;;22.08;39.96;101411.75;686181;28;116039;-69
2022/06/18 01:52:30;;;;;;;0.20;0.20;;;;;;;22.11;39.81;101418.69;683373;28;121911;-68
2022/06/18 01:53:02;;;;;;;0.20;0.20;;;;;;;22.10;39.88;101412.38;687176;28;139756;-68
2022/06/18 01:53:27;;;;;;;0.20;0.20;;;;;;;22.12;39.76;101412.97;687481;28;93004;-69
2022/06/18 01:53:55;;;;;;;0.20;0.20;;;;;;;22.12;39.72;101414.88;687360;28;138582;-69
2022/06/18 01:54:21;;;;;;;0.30;0.30;;;;;;;22.11;39.74;101411.28;688196;28;92191;-69
2022/06/18 01:54:46;;;;;;;0.20;0.20;;;;;;;22.12;39.93;101417.63;684598;28;138837;-69
2022/06/18 01:55:11;;;;;;;0.30;0.30;;;;;;;22.10;39.88;101412.38;685387;28;115187;-69